CYKD

Aklavik Airport

Aklavik, , Canada
METAR CYKD 242300Z 15010G19KT 15SM SKC 02/M05 A2982 RMK 0.0/SNW CVR/MEDIUM PACK/LAST STFD OBS/NXT 251300Z SLP101
Observed Flight Rules
Apr-24 @ 23:00 UTC (2 hours ago) Visual Flight Rules
Wind Visibility Clouds
150° at 10 knots
 Gusting to 19 knots
15 miles
  • Clear skies
Temperatures Readings
Current 2°C / 36°F
Dewpoint -5°C / 23°F
Humidity 60%
Altimeter 29.82" Hg
Pressure 1010.1 hPa
Elevation 7
METAR CYKD 242300Z 15010G19KT 15SM SKC 02/M05 A2982 RMK 0.0/SNW CVR/MEDIUM PACK/LAST STFD OBS/NXT 251300Z SLP101
Observed Flight Rules
Apr-24 @ 23:00 UTC
(2 hours ago)
VFR
Wind Visibility
150° at 10 knots
 Gusting to 19 knots
15 miles
Clouds
  • Clear skies
Temperature Dewpoint
2°C / 36°F -5°C / 23°F
Humidity Altimeter Pressure
60% 29.82" Hg 1010.1 hPa